sensor_id;sensor_type;location;lat;lon;timestamp;P1;durP1;ratioP1;P2;durP2;ratioP2
72408;SDS011;60402;48.082;11.628;2022-09-27T00:01:05;2.53;;;0.80;;
72408;SDS011;60402;48.082;11.628;2022-09-27T00:03:32;2.92;;;0.80;;
72408;SDS011;60402;48.082;11.628;2022-09-27T00:06:05;2.00;;;0.80;;
72408;SDS011;60402;48.082;11.628;2022-09-27T00:08:38;2.05;;;0.90;;
72408;SDS011;60402;48.082;11.628;2022-09-27T00:11:05;1.77;;;0.82;;
72408;SDS011;60402;48.082;11.628;2022-09-27T00:13:33;2.10;;;0.88;;
72408;SDS011;60402;48.082;11.628;2022-09-27T00:15:59;3.42;;;1.00;;
72408;SDS011;60402;48.082;11.628;2022-09-27T00:18:29;3.35;;;0.93;;
72408;SDS011;60402;48.082;11.628;2022-09-27T00:20:55;4.43;;;0.88;;
72408;SDS011;60402;48.082;11.628;2022-09-27T00:23:21;2.83;;;1.00;;
72408;SDS011;60402;48.082;11.628;2022-09-27T00:25:56;2.33;;;0.90;;
72408;SDS011;60402;48.082;11.628;2022-09-27T00:28:22;2.25;;;0.90;;
72408;SDS011;60402;48.082;11.628;2022-09-27T00:30:48;4.93;;;1.55;;
72408;SDS011;60402;48.082;11.628;2022-09-27T00:33:14;1.63;;;0.80;;
72408;SDS011;60402;48.082;11.628;2022-09-27T00:35:39;3.80;;;0.90;;
72408;SDS011;60402;48.082;11.628;2022-09-27T00:38:04;3.13;;;1.00;;
72408;SDS011;60402;48.082;11.628;2022-09-27T00:40:30;2.45;;;1.00;;
72408;SDS011;60402;48.082;11.628;2022-09-27T00:42:56;2.25;;;0.80;;
72408;SDS011;60402;48.082;11.628;2022-09-27T00:45:22;2.70;;;1.13;;
72408;SDS011;60402;48.082;11.628;2022-09-27T00:47:51;3.58;;;0.90;;
72408;SDS011;60402;48.082;11.628;2022-09-27T00:50:24;2.72;;;1.10;;
72408;SDS011;60402;48.082;11.628;2022-09-27T00:53:14;2.58;;;0.95;;
72408;SDS011;60402;48.082;11.628;2022-09-27T00:55:47;2.38;;;1.10;;
72408;SDS011;60402;48.082;11.628;2022-09-27T00:58:16;1.40;;;0.70;;
72408;SDS011;60402;48.082;11.628;2022-09-27T01:00:46;2.35;;;0.80;;
72408;SDS011;60402;48.082;11.628;2022-09-27T01:03:20;3.90;;;1.60;;
72408;SDS011;60402;48.082;11.628;2022-09-27T01:06:24;1.80;;;0.98;;
72408;SDS011;60402;48.082;11.628;2022-09-27T01:08:50;3.28;;;1.10;;
72408;SDS011;60402;48.082;11.628;2022-09-27T01:16:39;2.30;;;1.02;;
72408;SDS011;60402;48.082;11.628;2022-09-27T01:19:11;2.45;;;0.95;;
72408;SDS011;60402;48.082;11.628;2022-09-27T01:21:52;3.13;;;1.00;;
72408;SDS011;60402;48.082;11.628;2022-09-27T01:26:59;2.72;;;1.05;;
72408;SDS011;60402;48.082;11.628;2022-09-27T01:32:22;3.33;;;1.20;;
72408;SDS011;60402;48.082;11.628;2022-09-27T01:40:08;3.38;;;1.20;;
72408;SDS011;60402;48.082;11.628;2022-09-27T01:42:36;3.88;;;1.20;;
72408;SDS011;60402;48.082;11.628;2022-09-27T01:45:22;2.40;;;1.08;;
72408;SDS011;60402;48.082;11.628;2022-09-27T01:47:51;2.35;;;0.93;;
72408;SDS011;60402;48.082;11.628;2022-09-27T01:50:21;3.30;;;1.58;;
72408;SDS011;60402;48.082;11.628;2022-09-27T01:53:14;2.58;;;1.10;;
72408;SDS011;60402;48.082;11.628;2022-09-27T01:55:44;2.55;;;1.30;;
72408;SDS011;60402;48.082;11.628;2022-09-27T02:00:43;2.75;;;1.08;;
72408;SDS011;60402;48.082;11.628;2022-09-27T02:03:14;6.18;;;1.30;;
72408;SDS011;60402;48.082;11.628;2022-09-27T02:05:46;2.92;;;1.13;;
72408;SDS011;60402;48.082;11.628;2022-09-27T02:08:18;3.00;;;1.30;;
72408;SDS011;60402;48.082;11.628;2022-09-27T02:10:51;3.28;;;1.10;;
72408;SDS011;60402;48.082;11.628;2022-09-27T02:18:22;3.40;;;1.25;;
72408;SDS011;60402;48.082;11.628;2022-09-27T02:20:54;3.83;;;1.50;;
72408;SDS011;60402;48.082;11.628;2022-09-27T02:23:28;4.18;;;1.50;;
72408;SDS011;60402;48.082;11.628;2022-09-27T02:28:47;3.55;;;1.25;;
72408;SDS011;60402;48.082;11.628;2022-09-27T02:31:21;2.78;;;1.30;;
72408;SDS011;60402;48.082;11.628;2022-09-27T02:33:48;2.95;;;1.30;;
72408;SDS011;60402;48.082;11.628;2022-09-27T02:36:17;2.50;;;1.08;;
72408;SDS011;60402;48.082;11.628;2022-09-27T02:38:44;2.80;;;1.30;;
72408;SDS011;60402;48.082;11.628;2022-09-27T02:41:13;4.72;;;1.40;;
72408;SDS011;60402;48.082;11.628;2022-09-27T02:43:40;2.78;;;1.27;;
72408;SDS011;60402;48.082;11.628;2022-09-27T02:51:46;3.67;;;1.52;;
72408;SDS011;60402;48.082;11.628;2022-09-27T02:54:43;3.80;;;1.35;;
72408;SDS011;60402;48.082;11.628;2022-09-27T03:00:35;3.60;;;1.70;;
72408;SDS011;60402;48.082;11.628;2022-09-27T03:03:23;3.22;;;1.38;;
72408;SDS011;60402;48.082;11.628;2022-09-27T03:06:09;4.03;;;1.40;;
72408;SDS011;60402;48.082;11.628;2022-09-27T03:08:37;4.05;;;1.50;;
72408;SDS011;60402;48.082;11.628;2022-09-27T03:11:03;3.20;;;1.30;;
72408;SDS011;60402;48.082;11.628;2022-09-27T03:13:29;4.15;;;1.50;;
72408;SDS011;60402;48.082;11.628;2022-09-27T03:15:55;3.80;;;1.40;;
72408;SDS011;60402;48.082;11.628;2022-09-27T03:18:20;4.95;;;1.60;;
72408;SDS011;60402;48.082;11.628;2022-09-27T03:20:45;4.88;;;1.55;;
72408;SDS011;60402;48.082;11.628;2022-09-27T03:23:11;3.95;;;1.50;;
72408;SDS011;60402;48.082;11.628;2022-09-27T03:25:36;4.72;;;1.50;;
72408;SDS011;60402;48.082;11.628;2022-09-27T03:28:02;3.30;;;1.40;;
72408;SDS011;60402;48.082;11.628;2022-09-27T03:30:28;4.90;;;1.75;;
72408;SDS011;60402;48.082;11.628;2022-09-27T03:32:53;4.60;;;2.08;;
72408;SDS011;60402;48.082;11.628;2022-09-27T03:35:18;4.32;;;1.77;;
72408;SDS011;60402;48.082;11.628;2022-09-27T03:37:44;4.93;;;1.95;;
72408;SDS011;60402;48.082;11.628;2022-09-27T03:40:11;5.70;;;2.63;;
72408;SDS011;60402;48.082;11.628;2022-09-27T03:42:37;3.53;;;1.65;;
72408;SDS011;60402;48.082;11.628;2022-09-27T03:45:02;5.03;;;1.88;;
72408;SDS011;60402;48.082;11.628;2022-09-27T03:47:28;5.15;;;1.90;;
72408;SDS011;60402;48.082;11.628;2022-09-27T03:49:53;4.88;;;1.73;;
72408;SDS011;60402;48.082;11.628;2022-09-27T03:52:19;4.78;;;1.70;;
72408;SDS011;60402;48.082;11.628;2022-09-27T03:54:44;4.40;;;2.00;;
72408;SDS011;60402;48.082;11.628;2022-09-27T03:57:09;5.03;;;1.85;;
72408;SDS011;60402;48.082;11.628;2022-09-27T03:59:35;4.95;;;1.73;;
72408;SDS011;60402;48.082;11.628;2022-09-27T04:02:00;3.95;;;1.50;;
72408;SDS011;60402;48.082;11.628;2022-09-27T04:04:26;4.68;;;1.70;;
72408;SDS011;60402;48.082;11.628;2022-09-27T04:06:51;5.32;;;1.75;;
72408;SDS011;60402;48.082;11.628;2022-09-27T04:09:17;3.25;;;1.60;;
72408;SDS011;60402;48.082;11.628;2022-09-27T04:11:42;5.57;;;1.40;;
72408;SDS011;60402;48.082;11.628;2022-09-27T04:14:07;4.32;;;1.90;;
72408;SDS011;60402;48.082;11.628;2022-09-27T04:16:33;4.18;;;1.70;;
72408;SDS011;60402;48.082;11.628;2022-09-27T04:18:59;5.40;;;1.80;;
72408;SDS011;60402;48.082;11.628;2022-09-27T04:21:25;4.75;;;1.80;;
72408;SDS011;60402;48.082;11.628;2022-09-27T04:23:51;4.13;;;1.77;;
72408;SDS011;60402;48.082;11.628;2022-09-27T04:26:17;6.05;;;1.80;;
72408;SDS011;60402;48.082;11.628;2022-09-27T04:28:42;5.40;;;1.90;;
72408;SDS011;60402;48.082;11.628;2022-09-27T04:31:08;4.63;;;1.83;;
72408;SDS011;60402;48.082;11.628;2022-09-27T04:33:33;3.95;;;1.73;;
72408;SDS011;60402;48.082;11.628;2022-09-27T04:35:59;4.47;;;1.70;;
72408;SDS011;60402;48.082;11.628;2022-09-27T04:38:43;5.35;;;1.63;;
72408;SDS011;60402;48.082;11.628;2022-09-27T04:41:08;3.95;;;1.50;;
72408;SDS011;60402;48.082;11.628;2022-09-27T04:43:34;5.00;;;1.85;;
72408;SDS011;60402;48.082;11.628;2022-09-27T04:46:00;5.28;;;1.83;;
72408;SDS011;60402;48.082;11.628;2022-09-27T04:48:25;4.35;;;1.80;;
72408;SDS011;60402;48.082;11.628;2022-09-27T04:53:44;4.22;;;1.90;;
72408;SDS011;60402;48.082;11.628;2022-09-27T04:56:10;3.45;;;1.50;;
72408;SDS011;60402;48.082;11.628;2022-09-27T04:58:36;5.28;;;2.38;;
72408;SDS011;60402;48.082;11.628;2022-09-27T05:01:02;4.72;;;1.90;;
72408;SDS011;60402;48.082;11.628;2022-09-27T05:03:28;8.73;;;4.68;;
72408;SDS011;60402;48.082;11.628;2022-09-27T05:05:54;5.95;;;3.05;;
72408;SDS011;60402;48.082;11.628;2022-09-27T05:08:20;4.85;;;2.65;;
72408;SDS011;60402;48.082;11.628;2022-09-27T05:10:45;5.38;;;2.63;;
72408;SDS011;60402;48.082;11.628;2022-09-27T05:13:12;5.18;;;2.35;;
72408;SDS011;60402;48.082;11.628;2022-09-27T05:15:37;3.97;;;1.90;;
72408;SDS011;60402;48.082;11.628;2022-09-27T05:18:03;7.03;;;3.38;;
72408;SDS011;60402;48.082;11.628;2022-09-27T05:20:29;2.90;;;1.58;;
72408;SDS011;60402;48.082;11.628;2022-09-27T05:22:55;7.88;;;3.25;;
72408;SDS011;60402;48.082;11.628;2022-09-27T05:25:21;7.82;;;3.90;;
72408;SDS011;60402;48.082;11.628;2022-09-27T05:27:46;15.07;;;8.60;;
72408;SDS011;60402;48.082;11.628;2022-09-27T05:30:11;11.35;;;6.03;;
72408;SDS011;60402;48.082;11.628;2022-09-27T05:32:43;5.30;;;2.00;;
72408;SDS011;60402;48.082;11.628;2022-09-27T05:35:12;25.60;;;10.98;;
72408;SDS011;60402;48.082;11.628;2022-09-27T05:37:38;11.20;;;4.90;;
72408;SDS011;60402;48.082;11.628;2022-09-27T05:40:05;8.13;;;3.95;;
72408;SDS011;60402;48.082;11.628;2022-09-27T05:42:36;18.88;;;11.57;;
72408;SDS011;60402;48.082;11.628;2022-09-27T05:45:08;8.63;;;5.15;;
72408;SDS011;60402;48.082;11.628;2022-09-27T05:47:33;7.88;;;4.32;;
72408;SDS011;60402;48.082;11.628;2022-09-27T05:49:59;7.68;;;3.47;;
72408;SDS011;60402;48.082;11.628;2022-09-27T05:52:24;4.20;;;1.67;;
72408;SDS011;60402;48.082;11.628;2022-09-27T05:54:50;4.03;;;1.63;;
72408;SDS011;60402;48.082;11.628;2022-09-27T05:57:15;3.88;;;1.30;;
72408;SDS011;60402;48.082;11.628;2022-09-27T05:59:41;5.15;;;2.10;;
72408;SDS011;60402;48.082;11.628;2022-09-27T06:02:08;7.82;;;3.00;;
72408;SDS011;60402;48.082;11.628;2022-09-27T06:04:36;6.53;;;3.08;;
72408;SDS011;60402;48.082;11.628;2022-09-27T06:07:01;2.85;;;1.15;;
72408;SDS011;60402;48.082;11.628;2022-09-27T06:09:26;2.55;;;1.08;;
72408;SDS011;60402;48.082;11.628;2022-09-27T06:11:52;7.38;;;3.30;;
72408;SDS011;60402;48.082;11.628;2022-09-27T06:14:18;8.63;;;3.67;;
72408;SDS011;60402;48.082;11.628;2022-09-27T06:16:43;3.33;;;1.52;;
72408;SDS011;60402;48.082;11.628;2022-09-27T06:19:09;2.97;;;1.30;;
72408;SDS011;60402;48.082;11.628;2022-09-27T06:21:34;1.33;;;0.50;;
72408;SDS011;60402;48.082;11.628;2022-09-27T06:24:00;0.80;;;0.35;;
72408;SDS011;60402;48.082;11.628;2022-09-27T06:26:25;0.57;;;0.30;;
72408;SDS011;60402;48.082;11.628;2022-09-27T06:28:51;2.65;;;0.50;;
72408;SDS011;60402;48.082;11.628;2022-09-27T06:31:17;1.85;;;0.63;;
72408;SDS011;60402;48.082;11.628;2022-09-27T06:33:42;3.67;;;0.60;;
72408;SDS011;60402;48.082;11.628;2022-09-27T06:36:08;2.17;;;0.57;;
72408;SDS011;60402;48.082;11.628;2022-09-27T06:38:33;2.22;;;0.50;;
72408;SDS011;60402;48.082;11.628;2022-09-27T06:41:00;1.77;;;0.50;;
72408;SDS011;60402;48.082;11.628;2022-09-27T06:43:26;1.17;;;0.50;;
72408;SDS011;60402;48.082;11.628;2022-09-27T06:45:52;0.70;;;0.30;;
72408;SDS011;60402;48.082;11.628;2022-09-27T06:48:18;1.73;;;0.40;;
72408;SDS011;60402;48.082;11.628;2022-09-27T06:50:49;1.95;;;0.60;;
72408;SDS011;60402;48.082;11.628;2022-09-27T06:53:15;2.10;;;0.40;;
72408;SDS011;60402;48.082;11.628;2022-09-27T06:55:44;0.70;;;0.43;;
72408;SDS011;60402;48.082;11.628;2022-09-27T06:58:09;2.67;;;0.70;;
72408;SDS011;60402;48.082;11.628;2022-09-27T07:00:54;2.25;;;0.63;;
72408;SDS011;60402;48.082;11.628;2022-09-27T07:03:20;4.85;;;0.80;;
72408;SDS011;60402;48.082;11.628;2022-09-27T07:05:59;3.65;;;1.40;;
72408;SDS011;60402;48.082;11.628;2022-09-27T07:08:27;2.83;;;0.70;;
72408;SDS011;60402;48.082;11.628;2022-09-27T07:10:54;3.17;;;0.90;;
72408;SDS011;60402;48.082;11.628;2022-09-27T07:13:25;2.40;;;0.77;;
72408;SDS011;60402;48.082;11.628;2022-09-27T07:16:00;3.00;;;0.90;;
72408;SDS011;60402;48.082;11.628;2022-09-27T07:18:46;4.40;;;0.77;;
72408;SDS011;60402;48.082;11.628;2022-09-27T07:21:13;2.05;;;0.55;;
72408;SDS011;60402;48.082;11.628;2022-09-27T07:23:40;3.03;;;1.00;;
72408;SDS011;60402;48.082;11.628;2022-09-27T07:26:06;4.35;;;0.98;;
72408;SDS011;60402;48.082;11.628;2022-09-27T07:28:34;1.42;;;0.50;;
72408;SDS011;60402;48.082;11.628;2022-09-27T07:31:00;1.95;;;0.50;;
72408;SDS011;60402;48.082;11.628;2022-09-27T07:33:27;1.02;;;0.55;;
72408;SDS011;60402;48.082;11.628;2022-09-27T07:35:53;1.58;;;0.50;;
72408;SDS011;60402;48.082;11.628;2022-09-27T07:38:18;1.98;;;0.90;;
72408;SDS011;60402;48.082;11.628;2022-09-27T07:40:44;1.00;;;0.50;;
72408;SDS011;60402;48.082;11.628;2022-09-27T07:43:09;2.45;;;0.60;;
72408;SDS011;60402;48.082;11.628;2022-09-27T07:45:36;0.60;;;0.40;;
72408;SDS011;60402;48.082;11.628;2022-09-27T07:48:09;0.95;;;0.30;;
72408;SDS011;60402;48.082;11.628;2022-09-27T07:50:37;0.52;;;0.30;;
72408;SDS011;60402;48.082;11.628;2022-09-27T07:53:03;1.02;;;0.30;;
72408;SDS011;60402;48.082;11.628;2022-09-27T07:55:29;0.22;;;0.15;;
72408;SDS011;60402;48.082;11.628;2022-09-27T07:58:01;0.45;;;0.13;;
72408;SDS011;60402;48.082;11.628;2022-09-27T08:00:28;1.30;;;0.38;;
72408;SDS011;60402;48.082;11.628;2022-09-27T08:02:53;0.98;;;0.30;;
72408;SDS011;60402;48.082;11.628;2022-09-27T08:05:19;0.52;;;0.20;;
72408;SDS011;60402;48.082;11.628;2022-09-27T08:07:44;0.95;;;0.13;;
72408;SDS011;60402;48.082;11.628;2022-09-27T08:10:10;0.85;;;0.10;;
72408;SDS011;60402;48.082;11.628;2022-09-27T08:12:35;0.47;;;0.10;;
72408;SDS011;60402;48.082;11.628;2022-09-27T08:15:01;0.45;;;0.10;;
72408;SDS011;60402;48.082;11.628;2022-09-27T08:17:28;1.95;;;0.20;;
72408;SDS011;60402;48.082;11.628;2022-09-27T08:19:54;0.65;;;0.30;;
72408;SDS011;60402;48.082;11.628;2022-09-27T08:22:19;0.57;;;0.13;;
72408;SDS011;60402;48.082;11.628;2022-09-27T08:24:45;1.00;;;0.15;;
72408;SDS011;60402;48.082;11.628;2022-09-27T08:27:12;0.65;;;0.10;;
72408;SDS011;60402;48.082;11.628;2022-09-27T08:29:38;1.00;;;0.20;;
72408;SDS011;60402;48.082;11.628;2022-09-27T08:32:09;0.22;;;0.20;;
72408;SDS011;60402;48.082;11.628;2022-09-27T08:34:37;0.75;;;0.20;;
72408;SDS011;60402;48.082;11.628;2022-09-27T08:37:06;0.73;;;0.10;;
72408;SDS011;60402;48.082;11.628;2022-09-27T08:39:31;0.32;;;0.30;;
72408;SDS011;60402;48.082;11.628;2022-09-27T08:44:32;0.32;;;0.20;;
72408;SDS011;60402;48.082;11.628;2022-09-27T08:49:48;0.77;;;0.38;;
72408;SDS011;60402;48.082;11.628;2022-09-27T08:52:35;0.43;;;0.20;;
72408;SDS011;60402;48.082;11.628;2022-09-27T08:55:08;0.17;;;0.13;;
72408;SDS011;60402;48.082;11.628;2022-09-27T08:57:55;3.03;;;0.35;;
72408;SDS011;60402;48.082;11.628;2022-09-27T09:00:22;1.08;;;0.40;;
72408;SDS011;60402;48.082;11.628;2022-09-27T09:02:48;0.38;;;0.20;;
72408;SDS011;60402;48.082;11.628;2022-09-27T09:05:15;0.50;;;0.20;;
72408;SDS011;60402;48.082;11.628;2022-09-27T09:16:15;1.45;;;0.22;;
72408;SDS011;60402;48.082;11.628;2022-09-27T09:19:01;0.82;;;0.20;;
72408;SDS011;60402;48.082;11.628;2022-09-27T09:34:33;0.13;;;0.10;;
72408;SDS011;60402;48.082;11.628;2022-09-27T09:37:50;0.50;;;0.40;;
72408;SDS011;60402;48.082;11.628;2022-09-27T09:45:50;2.42;;;0.70;;
72408;SDS011;60402;48.082;11.628;2022-09-27T09:51:00;1.25;;;0.35;;
72408;SDS011;60402;48.082;11.628;2022-09-27T09:58:58;1.17;;;0.50;;
72408;SDS011;60402;48.082;11.628;2022-09-27T10:01:38;2.35;;;0.65;;
72408;SDS011;60402;48.082;11.628;2022-09-27T10:04:05;2.78;;;0.60;;
72408;SDS011;60402;48.082;11.628;2022-09-27T10:06:31;2.22;;;0.80;;
72408;SDS011;60402;48.082;11.628;2022-09-27T10:08:56;1.42;;;0.73;;
72408;SDS011;60402;48.082;11.628;2022-09-27T10:11:29;1.33;;;0.50;;
72408;SDS011;60402;48.082;11.628;2022-09-27T10:14:01;5.45;;;2.28;;
72408;SDS011;60402;48.082;11.628;2022-09-27T10:16:26;5.47;;;2.42;;
72408;SDS011;60402;48.082;11.628;2022-09-27T10:18:56;7.22;;;3.08;;
72408;SDS011;60402;48.082;11.628;2022-09-27T10:21:24;4.25;;;1.83;;
72408;SDS011;60402;48.082;11.628;2022-09-27T10:26:36;1.35;;;0.60;;
72408;SDS011;60402;48.082;11.628;2022-09-27T10:29:13;0.55;;;0.30;;
72408;SDS011;60402;48.082;11.628;2022-09-27T10:31:56;1.42;;;0.38;;
72408;SDS011;60402;48.082;11.628;2022-09-27T10:34:29;0.90;;;0.30;;
72408;SDS011;60402;48.082;11.628;2022-09-27T10:39:29;1.33;;;0.30;;
72408;SDS011;60402;48.082;11.628;2022-09-27T10:41:55;2.47;;;0.40;;
72408;SDS011;60402;48.082;11.628;2022-09-27T10:44:30;1.17;;;0.40;;
72408;SDS011;60402;48.082;11.628;2022-09-27T10:46:57;0.40;;;0.30;;
72408;SDS011;60402;48.082;11.628;2022-09-27T10:55:51;2.08;;;0.38;;
72408;SDS011;60402;48.082;11.628;2022-09-27T10:58:33;1.27;;;0.30;;
72408;SDS011;60402;48.082;11.628;2022-09-27T11:01:42;0.40;;;0.30;;
72408;SDS011;60402;48.082;11.628;2022-09-27T11:04:31;1.40;;;0.40;;
72408;SDS011;60402;48.082;11.628;2022-09-27T11:07:12;0.65;;;0.43;;
72408;SDS011;60402;48.082;11.628;2022-09-27T11:09:57;1.15;;;0.32;;
72408;SDS011;60402;48.082;11.628;2022-09-27T11:12:42;0.85;;;0.40;;
72408;SDS011;60402;48.082;11.628;2022-09-27T11:15:12;1.65;;;0.50;;
72408;SDS011;60402;48.082;11.628;2022-09-27T11:17:55;1.35;;;0.40;;
72408;SDS011;60402;48.082;11.628;2022-09-27T11:20:37;2.03;;;0.40;;
72408;SDS011;60402;48.082;11.628;2022-09-27T11:35:06;0.47;;;0.30;;
72408;SDS011;60402;48.082;11.628;2022-09-27T11:37:58;1.65;;;0.20;;
72408;SDS011;60402;48.082;11.628;2022-09-27T11:40:34;0.30;;;0.20;;
72408;SDS011;60402;48.082;11.628;2022-09-27T11:43:20;0.80;;;0.20;;
72408;SDS011;60402;48.082;11.628;2022-09-27T11:51:45;0.98;;;0.17;;
72408;SDS011;60402;48.082;11.628;2022-09-27T11:54:32;1.33;;;0.40;;
72408;SDS011;60402;48.082;11.628;2022-09-27T12:02:18;0.75;;;0.30;;
72408;SDS011;60402;48.082;11.628;2022-09-27T12:04:53;0.63;;;0.30;;
72408;SDS011;60402;48.082;11.628;2022-09-27T12:10:38;0.93;;;0.40;;
72408;SDS011;60402;48.082;11.628;2022-09-27T12:13:09;0.73;;;0.40;;
72408;SDS011;60402;48.082;11.628;2022-09-27T12:15:39;1.30;;;0.30;;
72408;SDS011;60402;48.082;11.628;2022-09-27T12:20:56;1.25;;;0.20;;
72408;SDS011;60402;48.082;11.628;2022-09-27T12:23:28;1.35;;;0.30;;
72408;SDS011;60402;48.082;11.628;2022-09-27T12:26:05;0.45;;;0.20;;
72408;SDS011;60402;48.082;11.628;2022-09-27T12:31:21;0.20;;;0.20;;
72408;SDS011;60402;48.082;11.628;2022-09-27T12:37:07;0.60;;;0.22;;
72408;SDS011;60402;48.082;11.628;2022-09-27T12:39:40;0.20;;;0.20;;
72408;SDS011;60402;48.082;11.628;2022-09-27T12:42:15;0.70;;;0.40;;
72408;SDS011;60402;48.082;11.628;2022-09-27T12:44:45;0.52;;;0.40;;
72408;SDS011;60402;48.082;11.628;2022-09-27T12:47:18;0.30;;;0.28;;
72408;SDS011;60402;48.082;11.628;2022-09-27T12:52:21;4.93;;;3.03;;
72408;SDS011;60402;48.082;11.628;2022-09-27T13:01:10;2.17;;;1.30;;
72408;SDS011;60402;48.082;11.628;2022-09-27T13:03:59;1.35;;;0.60;;
72408;SDS011;60402;48.082;11.628;2022-09-27T13:12:46;3.95;;;2.35;;
72408;SDS011;60402;48.082;11.628;2022-09-27T13:15:15;1.83;;;0.95;;
72408;SDS011;60402;48.082;11.628;2022-09-27T13:17:47;3.47;;;0.93;;
72408;SDS011;60402;48.082;11.628;2022-09-27T13:22:48;2.30;;;0.50;;
72408;SDS011;60402;48.082;11.628;2022-09-27T13:33:29;0.95;;;0.30;;
72408;SDS011;60402;48.082;11.628;2022-09-27T13:36:16;0.55;;;0.40;;
72408;SDS011;60402;48.082;11.628;2022-09-27T13:41:25;2.60;;;0.82;;
72408;SDS011;60402;48.082;11.628;2022-09-27T13:46:32;2.50;;;0.50;;
72408;SDS011;60402;48.082;11.628;2022-09-27T13:49:04;0.85;;;0.40;;
72408;SDS011;60402;48.082;11.628;2022-09-27T13:54:34;0.52;;;0.32;;
72408;SDS011;60402;48.082;11.628;2022-09-27T13:57:00;1.58;;;0.50;;
72408;SDS011;60402;48.082;11.628;2022-09-27T13:59:33;1.60;;;0.80;;
72408;SDS011;60402;48.082;11.628;2022-09-27T14:04:40;2.10;;;0.80;;
72408;SDS011;60402;48.082;11.628;2022-09-27T14:07:13;1.05;;;0.50;;
72408;SDS011;60402;48.082;11.628;2022-09-27T14:09:48;1.23;;;0.47;;
72408;SDS011;60402;48.082;11.628;2022-09-27T14:12:19;3.30;;;0.70;;
72408;SDS011;60402;48.082;11.628;2022-09-27T14:14:47;1.80;;;0.60;;
72408;SDS011;60402;48.082;11.628;2022-09-27T14:17:14;9.40;;;3.35;;
72408;SDS011;60402;48.082;11.628;2022-09-27T14:19:41;5.10;;;2.30;;
72408;SDS011;60402;48.082;11.628;2022-09-27T14:22:15;2.55;;;1.08;;
72408;SDS011;60402;48.082;11.628;2022-09-27T14:24:53;1.05;;;0.30;;
72408;SDS011;60402;48.082;11.628;2022-09-27T14:29:49;0.55;;;0.20;;
72408;SDS011;60402;48.082;11.628;2022-09-27T14:32:25;1.70;;;0.93;;
72408;SDS011;60402;48.082;11.628;2022-09-27T14:38:09;0.30;;;0.30;;
72408;SDS011;60402;48.082;11.628;2022-09-27T14:40:41;0.28;;;0.20;;
72408;SDS011;60402;48.082;11.628;2022-09-27T14:43:12;0.20;;;0.20;;
72408;SDS011;60402;48.082;11.628;2022-09-27T14:45:41;1.75;;;0.47;;
72408;SDS011;60402;48.082;11.628;2022-09-27T14:48:26;1.27;;;0.30;;
72408;SDS011;60402;48.082;11.628;2022-09-27T14:50:54;0.40;;;0.30;;
72408;SDS011;60402;48.082;11.628;2022-09-27T14:53:25;0.30;;;0.20;;
72408;SDS011;60402;48.082;11.628;2022-09-27T14:55:56;3.17;;;0.50;;
72408;SDS011;60402;48.082;11.628;2022-09-27T14:58:22;1.05;;;0.68;;
72408;SDS011;60402;48.082;11.628;2022-09-27T15:00:49;0.28;;;0.20;;
72408;SDS011;60402;48.082;11.628;2022-09-27T15:03:28;0.98;;;0.25;;
72408;SDS011;60402;48.082;11.628;2022-09-27T15:05:55;0.63;;;0.35;;
72408;SDS011;60402;48.082;11.628;2022-09-27T15:08:23;0.82;;;0.20;;
72408;SDS011;60402;48.082;11.628;2022-09-27T15:10:51;5.32;;;2.58;;
72408;SDS011;60402;48.082;11.628;2022-09-27T15:13:18;1.08;;;0.43;;
72408;SDS011;60402;48.082;11.628;2022-09-27T15:15:44;1.15;;;0.60;;
72408;SDS011;60402;48.082;11.628;2022-09-27T15:18:31;0.40;;;0.30;;
72408;SDS011;60402;48.082;11.628;2022-09-27T15:21:04;0.85;;;0.30;;
72408;SDS011;60402;48.082;11.628;2022-09-27T15:23:48;3.33;;;0.55;;
72408;SDS011;60402;48.082;11.628;2022-09-27T15:26:17;0.98;;;0.35;;
72408;SDS011;60402;48.082;11.628;2022-09-27T15:28:48;0.82;;;0.40;;
72408;SDS011;60402;48.082;11.628;2022-09-27T15:33:51;1.30;;;0.60;;
72408;SDS011;60402;48.082;11.628;2022-09-27T15:36:18;3.30;;;0.77;;
72408;SDS011;60402;48.082;11.628;2022-09-27T15:39:16;1.85;;;0.63;;
72408;SDS011;60402;48.082;11.628;2022-09-27T15:47:02;0.47;;;0.28;;
72408;SDS011;60402;48.082;11.628;2022-09-27T15:51:55;1.20;;;0.70;;
72408;SDS011;60402;48.082;11.628;2022-09-27T15:54:23;2.13;;;0.40;;
72408;SDS011;60402;48.082;11.628;2022-09-27T15:56:51;4.28;;;0.52;;
72408;SDS011;60402;48.082;11.628;2022-09-27T15:59:21;0.55;;;0.40;;
72408;SDS011;60402;48.082;11.628;2022-09-27T16:01:46;1.35;;;0.40;;
72408;SDS011;60402;48.082;11.628;2022-09-27T16:04:12;2.13;;;0.40;;
72408;SDS011;60402;48.082;11.628;2022-09-27T16:06:39;0.70;;;0.40;;
72408;SDS011;60402;48.082;11.628;2022-09-27T16:09:09;1.48;;;0.40;;
72408;SDS011;60402;48.082;11.628;2022-09-27T16:11:40;0.73;;;0.38;;
72408;SDS011;60402;48.082;11.628;2022-09-27T16:14:05;1.50;;;0.50;;
72408;SDS011;60402;48.082;11.628;2022-09-27T16:16:31;1.65;;;0.30;;
72408;SDS011;60402;48.082;11.628;2022-09-27T16:18:56;2.47;;;0.50;;
72408;SDS011;60402;48.082;11.628;2022-09-27T16:21:21;2.08;;;0.40;;
72408;SDS011;60402;48.082;11.628;2022-09-27T16:23:47;2.28;;;0.55;;
72408;SDS011;60402;48.082;11.628;2022-09-27T16:26:12;0.82;;;0.30;;
72408;SDS011;60402;48.082;11.628;2022-09-27T16:28:37;1.75;;;0.40;;
72408;SDS011;60402;48.082;11.628;2022-09-27T16:31:06;0.75;;;0.30;;
72408;SDS011;60402;48.082;11.628;2022-09-27T16:33:34;1.63;;;0.38;;
72408;SDS011;60402;48.082;11.628;2022-09-27T16:36:03;0.68;;;0.30;;
72408;SDS011;60402;48.082;11.628;2022-09-27T16:38:30;1.38;;;0.40;;
72408;SDS011;60402;48.082;11.628;2022-09-27T16:41:00;1.27;;;0.35;;
72408;SDS011;60402;48.082;11.628;2022-09-27T16:43:27;2.17;;;0.70;;
72408;SDS011;60402;48.082;11.628;2022-09-27T16:45:52;2.08;;;0.40;;
72408;SDS011;60402;48.082;11.628;2022-09-27T16:48:18;1.73;;;0.50;;
72408;SDS011;60402;48.082;11.628;2022-09-27T16:50:44;2.28;;;0.45;;
72408;SDS011;60402;48.082;11.628;2022-09-27T16:53:28;3.58;;;0.68;;
72408;SDS011;60402;48.082;11.628;2022-09-27T16:55:57;1.15;;;0.40;;
72408;SDS011;60402;48.082;11.628;2022-09-27T17:00:48;2.50;;;0.40;;
72408;SDS011;60402;48.082;11.628;2022-09-27T17:03:13;1.48;;;0.45;;
72408;SDS011;60402;48.082;11.628;2022-09-27T17:05:38;1.70;;;0.30;;
72408;SDS011;60402;48.082;11.628;2022-09-27T17:08:04;0.53;;;0.40;;
72408;SDS011;60402;48.082;11.628;2022-09-27T17:10:29;1.73;;;0.50;;
72408;SDS011;60402;48.082;11.628;2022-09-27T17:12:55;1.42;;;0.63;;
72408;SDS011;60402;48.082;11.628;2022-09-27T17:15:21;0.80;;;0.65;;
72408;SDS011;60402;48.082;11.628;2022-09-27T17:17:49;0.85;;;0.30;;
72408;SDS011;60402;48.082;11.628;2022-09-27T17:20:15;1.98;;;0.70;;
72408;SDS011;60402;48.082;11.628;2022-09-27T17:22:40;1.17;;;0.30;;
72408;SDS011;60402;48.082;11.628;2022-09-27T17:25:06;2.00;;;0.60;;
72408;SDS011;60402;48.082;11.628;2022-09-27T17:27:31;1.35;;;0.63;;
72408;SDS011;60402;48.082;11.628;2022-09-27T17:29:57;0.63;;;0.38;;
72408;SDS011;60402;48.082;11.628;2022-09-27T17:32:22;1.35;;;0.40;;
72408;SDS011;60402;48.082;11.628;2022-09-27T17:34:48;2.47;;;0.38;;
72408;SDS011;60402;48.082;11.628;2022-09-27T17:37:14;1.42;;;0.60;;
72408;SDS011;60402;48.082;11.628;2022-09-27T17:39:39;1.27;;;0.47;;
72408;SDS011;60402;48.082;11.628;2022-09-27T17:42:05;0.52;;;0.47;;
72408;SDS011;60402;48.082;11.628;2022-09-27T17:44:30;1.13;;;0.50;;
72408;SDS011;60402;48.082;11.628;2022-09-27T17:46:56;1.40;;;0.35;;
72408;SDS011;60402;48.082;11.628;2022-09-27T17:49:40;1.13;;;0.40;;